Weston, WY

3:12 AM MDT on October 25, 2014 (GMT -0600)
AIRNow Thunder Basin WY WYDEQ | Change Station
CLOSE
Current Station
Personal Weather Station
Location: Weston, WY
Elevation: 3942 ft
Nearby Weather Stations

Elev 3942 ft 44.66 °N, 105.29 °W | Updated 407 days ago

Clear
Clear
45 °F
Feels Like 45 °F
N
7
Wind Variable Wind from South
Gusts 8 mph

Today
High -- | Low -- °F
--% Chance of Precip.
Yesterday
High -- | Low -- °F
Precip. -- in
7:29 AM 6:00 PM
New Moon, 2% visible
Pressure 30.12 in
Visibility 10.0 miles
Clouds Clear
Dew Point 30 °F
Humidity 56%
Rainfall -999.00 in
Snow Depth Not available.
UV 0 out of 12
Pollen 1.60 out of 12
Air Quality Not available.
Flu Activity Sporadic
METAR KGCC 250853Z AUTO 18005KT 10SM CLR M01/M02 A3014 RMK AO2 SLP198 T10061022 51001

More Conditions Fewer Conditions

Pressure 30.12 in
Visibility 10.0 miles
Clouds Clear
Dew Point 30 °F
Humidity 56%
Rainfall -999.00 in
Snow Depth Not available.
UV 0 out of 12
Pollen 1.60 out of 12
Air Quality Not available.
Flu Activity Sporadic
METAR KGCC 250853Z AUTO 18005KT 10SM CLR M01/M02 A3014 RMK AO2 SLP198 T10061022 51001

More Conditions Fewer Conditions

10-Day Weather Forecast

Almanac

Astronomy

Oct. 25, 2014 Rise Set
Actual Time 7:29 AM MDT 6:00 PM MDT
Civil Twilight 6:59 AM MDT 6:30 PM MDT
Nautical Twilight 6:25 AM MDT 7:04 PM MDT
Astronomical Twilight 5:51 AM MDT 7:37 PM MDT
Moon 9:14 AM MDT 7:21 PM MDT
Length of Visible Light 11h 30m
Length of Day
10h 30m
Tomorrow will be 2m 52s shorter.
New Moon, 2% of the Moon is Illuminated
Today
New Moon
Oct 30
First Quarter
Nov 6
Full
Nov 14
Last Quarter
Nov 22
New

Today's Extremes

State Highs State Lows

Community

WunderPhotos

Upload Photos

1,764,796 photos uploaded!

Nearby

Snow Depth

Station Depth Elevation
Reno Hill 0 in 8500 ft
Laprele Creek 1 in 8375 ft
Windy Peak 0 in 7900 ft
Townsend Creek 0 in 8700 ft
Sand Lake 4 in 10050 ft

Earthquake Activity

City Distance Mag. Time & Date
No recent earthquake activity has been reported nearby.
Minimum magnitude displayed is 2.5.

Coastal Water Temperatures

Place Temperature
No Stations Reporting

Nearby Weather Stations